Time;durP1;ratioP1;P1;durP2;ratioP2;P2;SDS_P1;SDS_P2;PMS_P1;PMS_P2;Temp;Humidity;BMP_temperature;BMP_pressure;BME280_temperature;BME280_humidity;BME280_pressure;Samples;Min_cycle;Max_cycle;Signal;HPM_P1;HPM_P2
2023/03/03 00:02:24;;;;;;;0.10;0.10;;;5.00;99.90;;;;;;5029239;28;20049;-63
2023/03/03 00:04:50;;;;;;;0.10;0.10;;;5.00;99.90;;;;;;5027858;28;20073;-62
2023/03/03 00:07:21;;;;;;;0.10;0.10;;;5.00;99.90;;;;;;5026293;28;20463;-63
2023/03/03 00:09:47;;;;;;;0.10;0.10;;;5.00;99.90;;;;;;5028537;28;20056;-63
2023/03/03 00:12:23;;;;;;;0.10;0.10;;;5.00;99.90;;;;;;5029708;28;20409;-63
2023/03/03 00:14:50;;;;;;;0.00;0.00;;;5.00;99.90;;;;;;5027278;28;20171;-62
2023/03/03 00:17:27;;;;;;;0.10;0.10;;;5.00;99.90;;;;;;5029923;28;20124;-63
2023/03/03 00:19:53;;;;;;;0.00;0.00;;;5.00;99.90;;;;;;5019970;28;20045;-63
2023/03/03 00:22:34;;;;;;;0.00;0.00;;;4.90;99.90;;;;;;5025337;28;20041;-63
2023/03/03 00:25:26;;;;;;;0.10;0.10;;;5.00;99.90;;;;;;5028560;28;20041;-63
2023/03/03 00:27:52;;;;;;;0.60;0.60;;;4.90;99.90;;;;;;5017462;28;20062;-62
2023/03/03 00:30:24;;;;;;;0.00;0.00;;;5.00;99.90;;;;;;5028710;28;20052;-63
2023/03/03 00:32:54;;;;;;;0.00;0.00;;;5.00;99.90;;;;;;5028829;28;20037;-63
2023/03/03 00:35:30;;;;;;;0.10;0.10;;;5.00;99.90;;;;;;5024294;28;20038;-63
2023/03/03 00:38:00;;;;;;;0.10;0.10;;;4.90;99.90;;;;;;5022468;28;20172;-63
2023/03/03 00:40:34;;;;;;;0.28;0.28;;;4.90;99.90;;;;;;5029093;28;20140;-60
2023/03/03 00:43:01;;;;;;;0.10;0.10;;;4.80;99.90;;;;;;5029326;28;20045;-60
2023/03/03 00:45:44;;;;;;;0.47;0.47;;;5.00;99.90;;;;;;5029031;28;20103;-60
2023/03/03 00:48:20;;;;;;;0.10;0.10;;;4.90;99.90;;;;;;5029097;28;20174;-61
2023/03/03 00:50:46;;;;;;;0.10;0.10;;;4.80;99.90;;;;;;5028217;28;20091;-60
2023/03/03 00:53:17;;;;;;;0.10;0.10;;;4.80;99.90;;;;;;5029683;28;20081;-61
2023/03/03 00:55:44;;;;;;;0.30;0.30;;;4.90;99.90;;;;;;5028837;28;20124;-60
2023/03/03 00:58:10;;;;;;;0.10;0.10;;;4.80;99.90;;;;;;5027665;28;20092;-60
2023/03/03 01:00:37;;;;;;;0.10;0.10;;;4.90;99.90;;;;;;5028776;28;20049;-60
2023/03/03 01:03:14;;;;;;;0.10;0.10;;;4.80;99.90;;;;;;5029021;28;20038;-60
2023/03/03 01:05:40;;;;;;;0.00;0.00;;;4.80;99.90;;;;;;5009209;28;20107;-60
2023/03/03 01:08:06;;;;;;;4.40;1.05;;;4.80;99.90;;;;;;5011672;28;20045;-60
2023/03/03 01:10:35;;;;;;;0.00;0.00;;;4.80;99.90;;;;;;5010151;28;20049;-60
2023/03/03 01:13:01;;;;;;;0.10;0.10;;;4.90;99.90;;;;;;5028688;28;20053;-60
2023/03/03 01:15:27;;;;;;;0.52;0.52;;;4.80;99.90;;;;;;5027859;28;20048;-60
2023/03/03 01:17:54;;;;;;;0.10;0.10;;;4.70;99.90;;;;;;5010816;28;20052;-60
2023/03/03 01:20:20;;;;;;;0.10;0.10;;;4.70;99.90;;;;;;5027598;28;20065;-60
2023/03/03 01:22:45;;;;;;;0.30;0.30;;;4.80;99.90;;;;;;5028902;28;20076;-60
2023/03/03 01:25:11;;;;;;;0.10;0.10;;;4.70;99.90;;;;;;5010239;28;20053;-60
2023/03/03 01:27:37;;;;;;;0.03;0.03;;;4.70;99.90;;;;;;5028261;28;20040;-60
2023/03/03 01:30:05;;;;;;;0.10;0.10;;;4.70;99.90;;;;;;5028965;28;20106;-60
2023/03/03 01:32:31;;;;;;;0.10;0.10;;;4.70;99.90;;;;;;5028013;28;20439;-60
2023/03/03 01:34:56;;;;;;;0.10;0.10;;;4.70;99.90;;;;;;5027709;28;20056;-60
2023/03/03 01:37:22;;;;;;;0.05;0.05;;;4.70;99.90;;;;;;5031514;28;20029;-60
2023/03/03 01:39:50;;;;;;;0.10;0.10;;;4.70;99.90;;;;;;5031325;28;20045;-60
2023/03/03 01:42:16;;;;;;;0.00;0.00;;;4.70;99.90;;;;;;5030336;28;20049;-60
2023/03/03 01:44:42;;;;;;;0.03;0.03;;;4.70;99.90;;;;;;5013466;28;20072;-60
2023/03/03 01:47:21;;;;;;;0.08;0.08;;;4.70;99.90;;;;;;5031067;28;20423;-60
2023/03/03 01:49:57;;;;;;;0.10;0.10;;;4.70;99.90;;;;;;5032476;28;20501;-60
2023/03/03 01:52:31;;;;;;;0.10;0.10;;;4.70;99.90;;;;;;5029789;28;20132;-60
2023/03/03 01:55:03;;;;;;;0.10;0.10;;;4.70;99.90;;;;;;5030088;28;20052;-60
2023/03/03 01:57:38;;;;;;;0.10;0.10;;;4.70;99.90;;;;;;5031182;28;20110;-60
2023/03/03 02:00:05;;;;;;;1.38;1.27;;;4.70;99.90;;;;;;5029669;28;20507;-60
2023/03/03 02:02:32;;;;;;;0.10;0.10;;;4.70;99.90;;;;;;5031930;28;20045;-60
2023/03/03 02:04:58;;;;;;;4.07;1.85;;;4.70;99.90;;;;;;5026167;28;20048;-60
2023/03/03 02:07:26;;;;;;;0.20;0.20;;;4.70;99.90;;;;;;5030138;28;20037;-60
2023/03/03 02:10:06;;;;;;;0.80;0.32;;;4.70;99.90;;;;;;5027784;28;20060;-60
2023/03/03 02:12:43;;;;;;;0.10;0.10;;;4.70;99.90;;;;;;5030773;28;20049;-60
2023/03/03 02:15:36;;;;;;;0.10;0.10;;;4.70;99.90;;;;;;5011501;28;20050;-60
2023/03/03 02:18:15;;;;;;;0.10;0.10;;;4.70;99.90;;;;;;5021909;28;20045;-60
2023/03/03 02:20:56;;;;;;;0.10;0.10;;;4.70;99.90;;;;;;5008166;28;20146;-60
2023/03/03 02:23:48;;;;;;;0.10;0.10;;;4.70;99.90;;;;;;5031120;28;20041;-60
2023/03/03 02:26:25;;;;;;;0.10;0.10;;;4.70;99.90;;;;;;5025397;28;20050;-60
2023/03/03 02:28:51;;;;;;;0.10;0.10;;;4.70;99.90;;;;;;5031439;28;20053;-60
2023/03/03 02:31:20;;;;;;;0.25;0.25;;;4.70;99.90;;;;;;5031212;28;20055;-60
2023/03/03 02:33:48;;;;;;;0.10;0.10;;;4.70;99.90;;;;;;5031318;28;20051;-60
2023/03/03 02:36:21;;;;;;;0.20;0.20;;;4.70;99.90;;;;;;5029528;28;20496;-60
2023/03/03 02:39:04;;;;;;;0.10;0.10;;;4.70;99.90;;;;;;5031535;28;20131;-60
2023/03/03 02:41:57;;;;;;;0.30;0.30;;;4.80;99.90;;;;;;5029762;28;20430;-60
2023/03/03 02:44:25;;;;;;;0.10;0.10;;;4.80;99.90;;;;;;5029107;28;20081;-60
2023/03/03 02:46:53;;;;;;;0.10;0.10;;;4.70;99.90;;;;;;5020391;28;20042;-60
2023/03/03 02:49:23;;;;;;;0.10;0.10;;;4.70;99.90;;;;;;5029196;28;20140;-60
2023/03/03 02:51:48;;;;;;;0.10;0.10;;;4.70;99.90;;;;;;5013632;28;20103;-60
2023/03/03 02:54:15;;;;;;;0.10;0.10;;;4.70;99.90;;;;;;5029934;28;20037;-60
2023/03/03 02:56:42;;;;;;;0.52;0.52;;;4.80;99.90;;;;;;5030381;28;20064;-60
2023/03/03 02:59:08;;;;;;;0.10;0.10;;;4.70;99.90;;;;;;5030197;28;20041;-60
2023/03/03 03:01:35;;;;;;;0.10;0.10;;;4.70;99.90;;;;;;5028383;28;20042;-60
2023/03/03 03:04:20;;;;;;;0.10;0.10;;;4.70;99.90;;;;;;5030061;28;20551;-60
2023/03/03 03:06:46;;;;;;;0.10;0.10;;;4.70;99.90;;;;;;5030846;28;20045;-60
2023/03/03 03:09:13;;;;;;;0.10;0.10;;;4.80;99.90;;;;;;5031268;28;20064;-60
2023/03/03 03:11:40;;;;;;;0.30;0.30;;;4.70;99.90;;;;;;5028716;28;20041;-60
2023/03/03 03:14:07;;;;;;;0.05;0.05;;;4.70;99.90;;;;;;5012339;28;20124;-61
2023/03/03 03:16:33;;;;;;;1.40;1.30;;;4.70;99.90;;;;;;5029977;28;20124;-60
2023/03/03 03:19:00;;;;;;;0.00;0.00;;;4.80;99.90;;;;;;5011338;28;20053;-60
2023/03/03 03:21:27;;;;;;;0.10;0.10;;;4.70;99.90;;;;;;5029952;28;20045;-60
2023/03/03 03:23:52;;;;;;;2.33;2.17;;;4.60;99.90;;;;;;5029588;28;20505;-60
2023/03/03 03:26:19;;;;;;;0.10;0.10;;;4.70;99.90;;;;;;5028887;28;20049;-60
2023/03/03 03:28:49;;;;;;;0.10;0.10;;;4.70;99.90;;;;;;5024675;28;20053;-60
2023/03/03 03:31:15;;;;;;;0.10;0.10;;;4.70;99.90;;;;;;5029171;28;20069;-61
2023/03/03 03:33:41;;;;;;;0.10;0.10;;;4.70;99.90;;;;;;5030390;28;20061;-60
2023/03/03 03:36:07;;;;;;;0.10;0.10;;;4.60;99.90;;;;;;5028435;28;20041;-60
2023/03/03 03:38:35;;;;;;;0.55;0.55;;;4.60;99.90;;;;;;5028979;28;20038;-60
2023/03/03 03:41:02;;;;;;;0.10;0.10;;;4.60;99.90;;;;;;5027609;28;20053;-60
2023/03/03 03:43:27;;;;;;;0.10;0.10;;;4.60;99.90;;;;;;5029596;28;20137;-60
2023/03/03 03:45:53;;;;;;;0.55;0.55;;;4.60;99.90;;;;;;5029881;28;20116;-60
2023/03/03 03:48:19;;;;;;;0.10;0.10;;;4.60;99.90;;;;;;5029407;28;20041;-60
2023/03/03 03:50:49;;;;;;;0.10;0.10;;;4.50;99.90;;;;;;5029644;28;20041;-60
2023/03/03 03:53:16;;;;;;;0.10;0.10;;;4.50;99.90;;;;;;5029316;28;20049;-60
2023/03/03 03:55:42;;;;;;;0.10;0.10;;;4.50;99.90;;;;;;5011582;28;20057;-60
2023/03/03 03:58:10;;;;;;;0.10;0.10;;;4.40;99.90;;;;;;5029397;28;20050;-60
2023/03/03 04:00:38;;;;;;;0.40;0.40;;;4.50;99.90;;;;;;5019747;28;20120;-60
2023/03/03 04:03:04;;;;;;;0.10;0.10;;;4.50;99.90;;;;;;5027395;28;20041;-60
2023/03/03 04:05:29;;;;;;;0.10;0.10;;;4.50;99.90;;;;;;5029186;28;20041;-60
2023/03/03 04:07:55;;;;;;;0.10;0.10;;;4.50;99.90;;;;;;5027985;28;20092;-60
2023/03/03 04:10:20;;;;;;;0.10;0.10;;;4.50;99.90;;;;;;5029518;28;20053;-61
2023/03/03 04:12:46;;;;;;;0.10;0.10;;;4.50;99.90;;;;;;5026254;28;20551;-62
2023/03/03 04:15:13;;;;;;;0.10;0.10;;;4.50;99.90;;;;;;5011515;28;20087;-62
2023/03/03 04:17:39;;;;;;;0.25;0.25;;;4.50;99.90;;;;;;5030053;28;20048;-62
2023/03/03 04:20:06;;;;;;;0.10;0.10;;;4.50;99.90;;;;;;5017782;28;20045;-62
2023/03/03 04:22:32;;;;;;;0.10;0.10;;;4.50;99.90;;;;;;5008562;28;20172;-62
2023/03/03 04:24:59;;;;;;;0.10;0.10;;;4.50;99.90;;;;;;5029871;28;20041;-62
2023/03/03 04:27:25;;;;;;;0.10;0.10;;;4.50;99.90;;;;;;5028064;28;20107;-62
2023/03/03 04:29:50;;;;;;;0.10;0.10;;;4.50;99.90;;;;;;5029845;28;20053;-62
2023/03/03 04:32:17;;;;;;;0.10;0.10;;;4.50;99.90;;;;;;5021914;28;20465;-62
2023/03/03 04:34:43;;;;;;;0.03;0.03;;;4.50;99.90;;;;;;5029122;28;20053;-62
2023/03/03 04:37:08;;;;;;;0.10;0.10;;;4.50;99.90;;;;;;5010773;28;20041;-62
2023/03/03 04:39:34;;;;;;;0.10;0.10;;;4.50;99.90;;;;;;5029497;28;20045;-62
2023/03/03 04:42:00;;;;;;;0.20;0.20;;;4.50;99.90;;;;;;5027820;28;20037;-62
2023/03/03 04:44:25;;;;;;;0.30;0.30;;;4.50;99.90;;;;;;5027410;28;20056;-62
2023/03/03 04:46:51;;;;;;;0.10;0.10;;;4.50;99.90;;;;;;5029604;28;20041;-62
2023/03/03 04:49:16;;;;;;;0.10;0.10;;;4.50;99.90;;;;;;5029827;28;20072;-63
2023/03/03 04:51:42;;;;;;;0.10;0.10;;;4.50;99.90;;;;;;5027260;28;20412;-62
2023/03/03 04:54:08;;;;;;;0.10;0.10;;;4.50;99.90;;;;;;5017340;28;20428;-63
2023/03/03 04:56:33;;;;;;;0.10;0.10;;;4.50;99.90;;;;;;5027511;28;20515;-61
2023/03/03 04:58:59;;;;;;;0.10;0.10;;;4.50;99.90;;;;;;5029646;28;20147;-60
2023/03/03 05:01:24;;;;;;;0.10;0.10;;;4.40;99.90;;;;;;5027186;28;20091;-61
2023/03/03 05:03:50;;;;;;;0.10;0.10;;;4.50;99.90;;;;;;5028502;28;20081;-61
2023/03/03 05:06:17;;;;;;;0.10;0.10;;;4.50;99.90;;;;;;5026840;28;20515;-60
2023/03/03 05:08:43;;;;;;;0.00;0.00;;;4.40;99.90;;;;;;5029465;28;20493;-61
2023/03/03 05:11:09;;;;;;;0.82;0.82;;;4.50;99.90;;;;;;5028797;28;20057;-61
2023/03/03 05:13:35;;;;;;;0.00;0.00;;;4.40;99.90;;;;;;5032305;28;20041;-61
2023/03/03 05:16:00;;;;;;;0.17;0.17;;;4.40;99.90;;;;;;5032353;28;20053;-62
2023/03/03 05:18:26;;;;;;;0.10;0.10;;;4.40;99.90;;;;;;5033034;28;20480;-62
2023/03/03 05:20:52;;;;;;;0.17;0.17;;;4.40;99.90;;;;;;5019494;28;20038;-62
2023/03/03 05:23:18;;;;;;;0.10;0.10;;;4.30;99.90;;;;;;5011476;28;20076;-62
2023/03/03 05:25:46;;;;;;;0.10;0.10;;;4.30;99.90;;;;;;5032834;28;20450;-62
2023/03/03 05:28:12;;;;;;;0.10;0.10;;;4.30;99.90;;;;;;5014326;28;20057;-62
2023/03/03 05:30:37;;;;;;;0.10;0.10;;;4.40;99.90;;;;;;5014009;28;20500;-62
2023/03/03 05:33:04;;;;;;;2.28;1.23;;;4.30;99.90;;;;;;5032395;28;20168;-62
2023/03/03 05:35:30;;;;;;;0.10;0.10;;;4.40;99.90;;;;;;5031725;28;20052;-62
2023/03/03 05:37:57;;;;;;;0.30;0.30;;;4.30;99.90;;;;;;5032201;28;20472;-62
2023/03/03 05:40:26;;;;;;;0.17;0.17;;;4.20;99.90;;;;;;5031453;28;20053;-62
2023/03/03 05:42:51;;;;;;;0.10;0.10;;;4.30;99.90;;;;;;5027065;28;20524;-62
2023/03/03 05:45:20;;;;;;;0.10;0.10;;;4.20;99.90;;;;;;5031362;28;20073;-63
2023/03/03 05:47:47;;;;;;;0.20;0.20;;;4.10;99.90;;;;;;5032493;28;20489;-63
2023/03/03 05:50:12;;;;;;;0.10;0.10;;;4.10;99.90;;;;;;5032105;28;20049;-62
2023/03/03 05:52:38;;;;;;;0.10;0.10;;;4.10;99.90;;;;;;5031385;28;20042;-62
2023/03/03 05:55:04;;;;;;;0.05;0.05;;;4.00;99.90;;;;;;5033033;28;20463;-63
2023/03/03 05:57:30;;;;;;;1.05;1.00;;;4.00;99.90;;;;;;5032689;28;20037;-62
2023/03/03 05:59:56;;;;;;;0.10;0.10;;;3.90;99.90;;;;;;5031421;28;20069;-63
2023/03/03 06:02:22;;;;;;;0.10;0.10;;;3.80;99.90;;;;;;5030988;28;20469;-63
2023/03/03 06:04:47;;;;;;;0.10;0.10;;;3.80;99.90;;;;;;5032985;28;20391;-63
2023/03/03 06:07:13;;;;;;;0.57;0.20;;;3.70;99.90;;;;;;5030708;28;20128;-62
2023/03/03 06:09:39;;;;;;;0.13;0.13;;;3.60;99.90;;;;;;5032461;28;20049;-62
2023/03/03 06:12:04;;;;;;;0.10;0.10;;;3.60;99.90;;;;;;5030225;28;20381;-62
2023/03/03 06:14:30;;;;;;;0.73;0.57;;;3.60;99.90;;;;;;5031697;28;20087;-62
2023/03/03 06:16:56;;;;;;;0.10;0.10;;;3.50;99.90;;;;;;5031273;28;20049;-63
2023/03/03 06:19:22;;;;;;;0.10;0.10;;;3.40;99.90;;;;;;5026154;28;20069;-62
2023/03/03 06:21:48;;;;;;;0.28;0.28;;;3.40;99.90;;;;;;5025029;28;20489;-62
2023/03/03 06:24:14;;;;;;;0.10;0.10;;;3.30;99.90;;;;;;5029848;28;20476;-62
2023/03/03 06:26:39;;;;;;;0.00;0.00;;;3.30;99.90;;;;;;5030281;28;20501;-62
2023/03/03 06:29:05;;;;;;;0.10;0.10;;;3.20;99.90;;;;;;5013766;28;20037;-62
2023/03/03 06:31:30;;;;;;;0.10;0.10;;;3.20;99.90;;;;;;5031189;28;20484;-63
2023/03/03 06:33:56;;;;;;;0.10;0.10;;;3.10;99.90;;;;;;5030920;28;20168;-63
2023/03/03 06:36:22;;;;;;;0.10;0.10;;;3.10;99.90;;;;;;5030904;28;20049;-62
2023/03/03 06:38:48;;;;;;;1.00;1.00;;;3.10;99.90;;;;;;5030684;28;20049;-60
2023/03/03 06:41:13;;;;;;;0.10;0.10;;;3.10;99.90;;;;;;5028595;28;20382;-60
2023/03/03 06:43:39;;;;;;;0.20;0.20;;;3.10;99.90;;;;;;5031131;28;20095;-60
2023/03/03 06:46:05;;;;;;;0.10;0.10;;;3.10;99.90;;;;;;5031790;28;20034;-60
2023/03/03 06:48:31;;;;;;;0.10;0.10;;;3.10;99.90;;;;;;5029668;28;20369;-60
2023/03/03 06:51:00;;;;;;;0.30;0.30;;;3.10;99.90;;;;;;5030357;28;20056;-60
2023/03/03 06:53:26;;;;;;;0.10;0.10;;;3.10;99.90;;;;;;5030124;28;20413;-60
2023/03/03 06:55:54;;;;;;;0.10;0.10;;;3.10;99.90;;;;;;5030858;28;20042;-60
2023/03/03 06:58:22;;;;;;;0.50;0.50;;;3.20;99.90;;;;;;5031360;28;20045;-60
2023/03/03 07:00:59;;;;;;;0.10;0.10;;;3.20;99.90;;;;;;5030246;28;20038;-62
2023/03/03 07:03:34;;;;;;;0.10;0.10;;;3.20;99.90;;;;;;5028572;28;20053;-62
2023/03/03 07:06:04;;;;;;;0.10;0.10;;;3.20;99.90;;;;;;5028339;28;20053;-62
2023/03/03 07:08:31;;;;;;;0.10;0.10;;;3.20;99.90;;;;;;5030407;28;20587;-63
2023/03/03 07:11:01;;;;;;;0.45;0.45;;;3.40;99.90;;;;;;5028410;28;20041;-62
2023/03/03 07:13:28;;;;;;;0.10;0.10;;;3.40;99.90;;;;;;5030328;28;20049;-63
2023/03/03 07:15:58;;;;;;;0.10;0.10;;;3.50;99.90;;;;;;5030114;28;20037;-62
2023/03/03 07:18:52;;;;;;;0.10;0.10;;;3.60;99.90;;;;;;5029874;28;20413;-62
2023/03/03 07:21:25;;;;;;;0.10;0.10;;;3.70;99.90;;;;;;5026676;28;20047;-63
2023/03/03 07:23:52;;;;;;;2.05;1.55;;;3.90;99.90;;;;;;5029570;28;20144;-63
2023/03/03 07:26:31;;;;;;;0.10;0.10;;;3.90;99.90;;;;;;5030124;28;20045;-63
2023/03/03 07:29:02;;;;;;;0.10;0.10;;;4.10;99.90;;;;;;5030159;28;20041;-63
2023/03/03 07:31:35;;;;;;;0.10;0.10;;;4.20;99.90;;;;;;5027896;28;20046;-63
2023/03/03 07:34:12;;;;;;;0.10;0.10;;;4.30;99.90;;;;;;5026775;28;20045;-63
2023/03/03 07:36:39;;;;;;;0.10;0.10;;;4.30;99.90;;;;;;5023926;28;20037;-63
2023/03/03 07:39:35;;;;;;;0.00;0.00;;;4.40;99.90;;;;;;5011393;28;20037;-63
2023/03/03 07:42:21;;;;;;;1.00;1.00;;;4.50;99.90;;;;;;5024393;28;20060;-62
2023/03/03 07:44:51;;;;;;;0.10;0.10;;;4.60;99.90;;;;;;5021623;28;20523;-62
2023/03/03 07:47:29;;;;;;;0.10;0.10;;;4.70;99.90;;;;;;5030666;28;20417;-60
2023/03/03 07:50:18;;;;;;;0.63;0.57;;;4.80;99.90;;;;;;5028976;28;20477;-60
2023/03/03 07:52:57;;;;;;;0.10;0.10;;;4.90;99.90;;;;;;5020612;28;20053;-60
2023/03/03 07:55:30;;;;;;;0.30;0.30;;;5.00;99.90;;;;;;5024961;28;20041;-60
2023/03/03 07:58:15;;;;;;;0.10;0.10;;;5.00;99.90;;;;;;5026654;28;20116;-60
2023/03/03 08:01:18;;;;;;;0.10;0.10;;;5.10;99.90;;;;;;5028208;28;20060;-60
2023/03/03 08:03:45;;;;;;;0.00;0.00;;;5.10;99.90;;;;;;5026853;28;20076;-60
2023/03/03 08:06:37;;;;;;;0.10;0.10;;;5.20;99.90;;;;;;5027742;28;20045;-60
2023/03/03 08:09:09;;;;;;;0.10;0.10;;;5.30;99.90;;;;;;5018410;28;20436;-60
2023/03/03 08:11:47;;;;;;;0.10;0.10;;;5.40;99.90;;;;;;5028809;28;20469;-60
2023/03/03 08:14:15;;;;;;;0.10;0.10;;;5.50;99.90;;;;;;5028166;28;20042;-60
2023/03/03 08:16:41;;;;;;;0.10;0.10;;;5.70;99.90;;;;;;5030529;28;20042;-60
2023/03/03 08:19:06;;;;;;;0.10;0.10;;;5.80;99.90;;;;;;5029045;28;20060;-60
2023/03/03 08:21:34;;;;;;;0.10;0.10;;;6.00;99.90;;;;;;5010174;28;20049;-60
2023/03/03 08:23:59;;;;;;;0.10;0.10;;;6.00;99.90;;;;;;5027213;28;20163;-60
2023/03/03 08:26:25;;;;;;;0.10;0.10;;;6.00;99.90;;;;;;5027664;28;20128;-60
2023/03/03 08:28:52;;;;;;;0.10;0.10;;;6.10;99.90;;;;;;5028713;28;20056;-60
2023/03/03 08:31:18;;;;;;;0.10;0.10;;;6.10;99.90;;;;;;5027818;28;20532;-60
2023/03/03 08:33:44;;;;;;;0.10;0.10;;;6.20;99.90;;;;;;5027254;28;20172;-60
2023/03/03 08:36:11;;;;;;;0.10;0.10;;;6.20;99.90;;;;;;5028986;28;20540;-60
2023/03/03 08:38:38;;;;;;;0.10;0.10;;;6.30;99.90;;;;;;5028979;28;20507;-60
2023/03/03 08:41:03;;;;;;;0.10;0.10;;;6.40;99.90;;;;;;5010419;28;20060;-60
2023/03/03 08:43:29;;;;;;;0.10;0.10;;;6.40;99.90;;;;;;5029312;28;20041;-60
2023/03/03 08:45:58;;;;;;;0.20;0.20;;;6.50;99.90;;;;;;5008269;28;20065;-60
2023/03/03 08:48:24;;;;;;;0.10;0.10;;;6.50;99.90;;;;;;5028395;28;20054;-61
2023/03/03 08:50:50;;;;;;;0.10;0.10;;;6.50;99.90;;;;;;5031225;28;20118;-60
2023/03/03 08:53:18;;;;;;;1.55;1.45;;;6.60;99.90;;;;;;5032163;28;20135;-60
2023/03/03 08:55:44;;;;;;;0.10;0.10;;;6.70;99.90;;;;;;5032300;28;20041;-60
2023/03/03 08:58:10;;;;;;;0.10;0.10;;;6.60;99.90;;;;;;5032466;28;20045;-60
2023/03/03 09:00:37;;;;;;;0.00;0.00;;;6.70;99.90;;;;;;5032087;28;20050;-60
2023/03/03 09:03:06;;;;;;;0.00;0.00;;;6.80;99.90;;;;;;5031001;28;20087;-60
2023/03/03 09:05:32;;;;;;;0.10;0.10;;;6.80;99.90;;;;;;5030883;28;20056;-61
2023/03/03 09:07:59;;;;;;;0.10;0.10;;;6.80;99.90;;;;;;5032139;28;20515;-60
2023/03/03 09:10:28;;;;;;;0.10;0.10;;;6.80;99.90;;;;;;5030034;28;20042;-60
2023/03/03 09:12:57;;;;;;;0.10;0.10;;;6.80;99.90;;;;;;5028223;28;20041;-60
2023/03/03 09:15:34;;;;;;;0.00;0.00;;;6.90;99.90;;;;;;5012657;28;20051;-61
2023/03/03 09:18:17;;;;;;;0.93;0.85;;;7.00;99.90;;;;;;5028439;28;20064;-60
2023/03/03 09:20:48;;;;;;;0.00;0.00;;;7.00;99.90;;;;;;5026867;28;20048;-60
2023/03/03 09:23:17;;;;;;;0.00;0.00;;;7.00;99.90;;;;;;5028484;28;20046;-59
2023/03/03 09:25:42;;;;;;;0.10;0.10;;;6.90;99.90;;;;;;5027005;28;20041;-59
2023/03/03 09:28:28;;;;;;;0.10;0.10;;;7.00;99.90;;;;;;5027866;28;20049;-62
2023/03/03 09:30:56;;;;;;;0.10;0.10;;;7.10;99.90;;;;;;5024176;28;20120;-63
2023/03/03 09:33:39;;;;;;;0.10;0.10;;;7.10;99.90;;;;;;5030330;28;20076;-60
2023/03/03 09:36:27;;;;;;;0.10;0.10;;;7.20;99.90;;;;;;5021268;28;20064;-61
2023/03/03 09:38:55;;;;;;;0.10;0.10;;;7.20;99.90;;;;;;5031707;28;20041;-61
2023/03/03 09:41:38;;;;;;;0.10;0.10;;;7.20;99.90;;;;;;5032349;28;20485;-61
2023/03/03 09:44:48;;;;;;;0.10;0.10;;;7.30;99.90;;;;;;5030725;28;20078;-61
2023/03/03 09:47:29;;;;;;;0.10;0.10;;;7.40;99.90;;;;;;5000242;28;20112;-61
2023/03/03 09:50:26;;;;;;;0.00;0.00;;;7.40;99.90;;;;;;5028218;28;20121;-61
2023/03/03 09:53:22;;;;;;;0.20;0.20;;;7.40;99.90;;;;;;5031894;28;20080;-62
2023/03/03 09:56:04;;;;;;;0.10;0.10;;;7.50;99.90;;;;;;5031819;28;20081;-62
2023/03/03 09:58:44;;;;;;;0.10;0.10;;;7.50;99.90;;;;;;5031505;28;20103;-62
2023/03/03 10:01:15;;;;;;;0.10;0.10;;;7.50;99.90;;;;;;5028626;28;20145;-62
2023/03/03 10:04:02;;;;;;;0.10;0.10;;;7.50;99.90;;;;;;5032091;28;20132;-61
2023/03/03 10:06:46;;;;;;;0.10;0.10;;;7.60;99.90;;;;;;5013757;28;20061;-61
2023/03/03 10:09:33;;;;;;;0.10;0.10;;;7.60;99.90;;;;;;5027573;28;20060;-62
2023/03/03 10:12:12;;;;;;;0.10;0.10;;;7.60;99.90;;;;;;5031731;28;20049;-61
2023/03/03 10:15:19;;;;;;;0.00;0.00;;;7.60;99.90;;;;;;5027523;28;20049;-61
2023/03/03 10:17:51;;;;;;;0.10;0.10;;;7.50;99.90;;;;;;5032134;28;20048;-61
2023/03/03 10:20:22;;;;;;;0.00;0.00;;;7.50;99.90;;;;;;5025105;28;20056;-60
2023/03/03 10:23:03;;;;;;;0.10;0.10;;;7.70;99.90;;;;;;5024527;28;20037;-62
2023/03/03 10:25:41;;;;;;;0.10;0.10;;;7.70;99.90;;;;;;5024564;28;20045;-62
2023/03/03 10:28:28;;;;;;;0.35;0.35;;;7.70;99.90;;;;;;5028208;28;20049;-61
2023/03/03 10:31:03;;;;;;;0.10;0.10;;;7.80;99.90;;;;;;5029229;28;20177;-61
2023/03/03 10:33:37;;;;;;;0.10;0.10;;;7.80;99.90;;;;;;5012414;28;20096;-61
2023/03/03 10:36:35;;;;;;;0.05;0.05;;;7.90;99.90;;;;;;5027293;28;20513;-61
2023/03/03 10:39:32;;;;;;;0.10;0.10;;;7.90;99.90;;;;;;4999264;28;20060;-62
2023/03/03 10:42:10;;;;;;;0.00;0.00;;;8.00;99.90;;;;;;5031074;28;20076;-62
2023/03/03 10:44:47;;;;;;;0.10;0.10;;;8.00;99.90;;;;;;5029124;28;20041;-62
2023/03/03 10:48:03;;;;;;;0.10;0.10;;;8.00;99.90;;;;;;5019412;28;20144;-63
2023/03/03 10:50:53;;;;;;;0.10;0.10;;;7.90;99.90;;;;;;5019999;28;20140;-62
2023/03/03 10:53:31;;;;;;;0.10;0.10;;;8.10;99.90;;;;;;5003925;28;20107;-62
2023/03/03 10:56:12;;;;;;;0.10;0.10;;;8.20;99.90;;;;;;5008833;28;20536;-62
2023/03/03 10:59:09;;;;;;;0.00;0.00;;;8.40;99.90;;;;;;5027646;28;20099;-62
2023/03/03 11:02:21;;;;;;;0.10;0.10;;;8.40;99.90;;;;;;5022448;28;20053;-62
2023/03/03 11:05:08;;;;;;;0.10;0.10;;;8.40;99.90;;;;;;4969408;28;20427;-62
2023/03/03 11:07:50;;;;;;;0.10;0.10;;;8.60;99.90;;;;;;5028157;28;20049;-61
2023/03/03 11:10:37;;;;;;;0.10;0.10;;;8.60;99.90;;;;;;5027553;28;20283;-61
2023/03/03 11:13:12;;;;;;;0.10;0.10;;;8.60;99.90;;;;;;5026519;28;20037;-61
2023/03/03 11:16:04;;;;;;;0.10;0.10;;;8.50;99.90;;;;;;5024512;28;20108;-62
2023/03/03 11:18:36;;;;;;;0.10;0.10;;;8.60;99.90;;;;;;5026748;28;20058;-62
2023/03/03 11:21:14;;;;;;;0.10;0.10;;;8.60;99.90;;;;;;5018954;28;20103;-62
2023/03/03 11:23:49;;;;;;;0.10;0.10;;;8.60;99.90;;;;;;5027641;28;20471;-62
2023/03/03 11:26:43;;;;;;;0.10;0.10;;;8.70;99.90;;;;;;5027158;28;20049;-62
2023/03/03 11:29:25;;;;;;;0.05;0.05;;;8.80;99.90;;;;;;5015685;28;20549;-62
2023/03/03 11:32:00;;;;;;;0.10;0.10;;;8.90;99.90;;;;;;5027833;28;20057;-62
2023/03/03 11:34:35;;;;;;;0.00;0.00;;;9.00;99.90;;;;;;5020386;28;20053;-62
2023/03/03 11:37:12;;;;;;;0.10;0.10;;;9.00;99.90;;;;;;5022563;28;20041;-62
2023/03/03 11:39:40;;;;;;;0.10;0.10;;;8.90;99.90;;;;;;5025380;28;20061;-62
2023/03/03 11:42:27;;;;;;;0.00;0.00;;;8.80;99.90;;;;;;5030321;28;20053;-62
2023/03/03 11:45:04;;;;;;;0.00;0.00;;;8.90;99.90;;;;;;5028033;28;20084;-62
2023/03/03 11:47:41;;;;;;;0.10;0.10;;;9.20;99.90;;;;;;5021865;28;20052;-62
2023/03/03 11:50:27;;;;;;;0.00;0.00;;;9.20;99.90;;;;;;5029476;28;20120;-62
2023/03/03 11:52:59;;;;;;;0.00;0.00;;;9.20;99.90;;;;;;5024256;28;20051;-62
2023/03/03 11:55:33;;;;;;;0.10;0.10;;;9.10;99.90;;;;;;5030345;28;20056;-62
2023/03/03 11:58:17;;;;;;;0.10;0.10;;;9.20;99.90;;;;;;5029075;28;20441;-62
2023/03/03 12:00:46;;;;;;;0.10;0.10;;;9.10;99.90;;;;;;5029471;28;20052;-62
2023/03/03 12:03:35;;;;;;;0.03;0.03;;;9.00;99.90;;;;;;5024947;28;20045;-62
2023/03/03 12:06:09;;;;;;;0.10;0.10;;;9.10;99.90;;;;;;5027553;28;20049;-62
2023/03/03 12:08:59;;;;;;;0.10;0.10;;;9.00;99.90;;;;;;5025831;28;20122;-62
2023/03/03 12:11:27;;;;;;;0.10;0.10;;;9.00;99.90;;;;;;5027273;28;20041;-62
2023/03/03 12:14:04;;;;;;;0.10;0.10;;;8.90;99.90;;;;;;5016111;28;20501;-62
2023/03/03 12:16:45;;;;;;;0.10;0.10;;;8.90;99.90;;;;;;5027498;28;20586;-62
2023/03/03 12:19:38;;;;;;;0.20;0.20;;;8.80;99.90;;;;;;5027867;28;20049;-62
2023/03/03 12:22:24;;;;;;;0.20;0.20;;;9.00;99.90;;;;;;5027650;28;20077;-62
2023/03/03 12:25:08;;;;;;;0.10;0.10;;;8.90;99.90;;;;;;5005004;28;20049;-63
2023/03/03 12:27:49;;;;;;;0.10;0.10;;;8.90;99.90;;;;;;5023034;28;20464;-63
2023/03/03 12:30:48;;;;;;;0.10;0.10;;;9.00;99.90;;;;;;5026785;28;20053;-63
2023/03/03 12:33:38;;;;;;;0.10;0.10;;;9.50;99.90;;;;;;5012677;28;20061;-63
2023/03/03 12:36:43;;;;;;;0.10;0.10;;;9.50;99.90;;;;;;5028255;28;20102;-63
2023/03/03 12:39:30;;;;;;;0.10;0.10;;;9.40;99.90;;;;;;5017080;28;20084;-63
2023/03/03 12:42:07;;;;;;;0.38;0.38;;;9.40;99.90;;;;;;5026826;28;20041;-63
2023/03/03 12:44:40;;;;;;;0.13;0.13;;;9.70;99.90;;;;;;5028037;28;20052;-63
2023/03/03 12:47:23;;;;;;;0.10;0.10;;;9.70;99.90;;;;;;5024583;28;20058;-63
2023/03/03 12:50:08;;;;;;;0.00;0.00;;;9.50;99.90;;;;;;5000271;28;20076;-63
2023/03/03 12:52:59;;;;;;;0.10;0.10;;;9.30;99.90;;;;;;5025872;28;20044;-63
2023/03/03 12:56:03;;;;;;;0.10;0.10;;;9.20;99.90;;;;;;5023168;28;20041;-63
2023/03/03 12:58:39;;;;;;;0.57;0.35;;;9.00;99.90;;;;;;5021177;28;20049;-63
2023/03/03 13:01:44;;;;;;;0.10;0.10;;;9.00;99.90;;;;;;5005447;28;20058;-63
2023/03/03 13:04:39;;;;;;;0.10;0.10;;;9.00;99.90;;;;;;5026375;28;20163;-63
2023/03/03 13:07:13;;;;;;;0.40;0.40;;;9.10;99.90;;;;;;5020283;28;20041;-63
2023/03/03 13:10:20;;;;;;;0.45;0.45;;;9.00;99.90;;;;;;5026666;28;20052;-63
2023/03/03 13:13:10;;;;;;;0.10;0.10;;;9.00;99.90;;;;;;5018728;28;20080;-62
2023/03/03 13:15:49;;;;;;;0.50;0.50;;;9.00;99.90;;;;;;5019723;28;20049;-63
2023/03/03 13:18:28;;;;;;;0.10;0.10;;;9.00;99.90;;;;;;5028316;28;20045;-63
2023/03/03 13:21:04;;;;;;;0.10;0.10;;;9.00;99.90;;;;;;5028432;28;20112;-63
2023/03/03 13:24:02;;;;;;;0.10;0.10;;;9.00;99.90;;;;;;5026817;28;20045;-63
2023/03/03 13:26:43;;;;;;;0.20;0.20;;;9.00;99.90;;;;;;5027251;28;20049;-63
2023/03/03 13:29:30;;;;;;;0.63;0.63;;;9.00;99.90;;;;;;5028206;28;20405;-63
2023/03/03 13:32:00;;;;;;;1.00;0.98;;;9.00;99.90;;;;;;5025460;28;20053;-63